Time;durP1;ratioP1;P1;durP2;ratioP2;P2;SDS_P1;SDS_P2;PMS_P1;PMS_P2;Temp;Humidity;BMP_temperature;BMP_pressure;BME280_temperature;BME280_humidity;BME280_pressure;Samples;Min_cycle;Max_cycle;Signal;HPM_P1;HPM_P2
2020/12/05 00:02:19;;;;;;;38.70;24.08;;;4.00;86.50;;;;;;4997387;28;20220;-80
2020/12/05 00:04:46;;;;;;;36.20;22.60;;;4.00;87.00;;;;;;4991050;28;20213;-78
2020/12/05 00:07:13;;;;;;;37.22;22.52;;;4.10;87.20;;;;;;4997462;28;20205;-75
2020/12/05 00:09:39;;;;;;;35.33;22.40;;;4.00;87.00;;;;;;5004667;28;20674;-77
2020/12/05 00:12:07;;;;;;;37.38;22.20;;;4.10;87.90;;;;;;4989286;28;20294;-75
2020/12/05 00:14:34;;;;;;;37.35;22.95;;;4.10;88.90;;;;;;4984531;28;20229;-78
2020/12/05 00:17:01;;;;;;;39.85;23.75;;;4.10;88.90;;;;;;4981005;28;20213;-76
2020/12/05 00:19:27;;;;;;;37.80;23.02;;;4.20;89.00;;;;;;4982890;28;20210;-76
2020/12/05 00:21:54;;;;;;;37.55;23.02;;;4.30;89.00;;;;;;5011966;28;20222;-79
2020/12/05 00:24:21;;;;;;;37.88;22.67;;;4.30;89.00;;;;;;5014744;28;20212;-80
2020/12/05 00:26:48;;;;;;;34.85;21.90;;;4.30;90.00;;;;;;5014861;28;20216;-79
2020/12/05 00:29:15;;;;;;;35.10;21.73;;;4.30;90.30;;;;;;5015640;28;20184;-80
2020/12/05 00:31:43;;;;;;;36.85;22.67;;;4.30;90.90;;;;;;4999898;28;20233;-76
2020/12/05 00:34:10;;;;;;;35.30;23.83;;;4.30;91.10;;;;;;4998233;28;20225;-77
2020/12/05 00:36:36;;;;;;;46.70;24.70;;;4.00;91.70;;;;;;4996565;28;20609;-76
2020/12/05 00:39:03;;;;;;;39.03;25.75;;;3.90;93.10;;;;;;4996792;28;20277;-77
2020/12/05 00:41:30;;;;;;;44.03;23.63;;;3.70;94.30;;;;;;4998997;28;20236;-78
2020/12/05 00:43:57;;;;;;;44.08;24.80;;;3.90;94.80;;;;;;5002709;28;20639;-77
2020/12/05 00:46:23;;;;;;;36.58;23.80;;;3.80;94.80;;;;;;5004355;28;20313;-77
2020/12/05 00:48:50;;;;;;;38.25;24.88;;;3.80;94.90;;;;;;5009372;28;20257;-78
2020/12/05 00:51:17;;;;;;;40.53;25.58;;;3.80;94.90;;;;;;5009849;28;20267;-78
2020/12/05 00:53:43;;;;;;;41.42;24.63;;;3.70;94.90;;;;;;5005689;28;20225;-79
2020/12/05 00:56:10;;;;;;;44.60;24.88;;;3.70;95.30;;;;;;5005427;28;20215;-79
2020/12/05 00:58:37;;;;;;;36.50;24.08;;;3.70;95.60;;;;;;5004842;28;20253;-78
2020/12/05 01:01:05;;;;;;;40.95;25.35;;;3.70;95.80;;;;;;4988943;28;20284;-77
2020/12/05 01:03:32;;;;;;;46.10;24.38;;;3.70;96.20;;;;;;4988218;28;20197;-77
2020/12/05 01:05:59;;;;;;;44.58;25.95;;;3.70;96.40;;;;;;5008090;28;20292;-78
2020/12/05 01:08:25;;;;;;;44.13;25.45;;;3.60;96.40;;;;;;5003116;28;20219;-77
2020/12/05 01:10:52;;;;;;;44.65;24.83;;;3.70;96.50;;;;;;5001471;28;20232;-77
2020/12/05 01:13:18;;;;;;;43.00;25.90;;;3.70;96.80;;;;;;5003457;28;20301;-78
2020/12/05 01:15:45;;;;;;;38.25;25.35;;;3.70;97.00;;;;;;5007930;28;20261;-78
2020/12/05 01:18:11;;;;;;;52.75;28.27;;;3.70;97.30;;;;;;4994222;28;20252;-77
2020/12/05 01:20:37;;;;;;;43.45;27.25;;;3.70;97.50;;;;;;4990795;28;20231;-77
2020/12/05 01:23:05;;;;;;;46.50;26.30;;;3.70;97.80;;;;;;4986728;28;20225;-78
2020/12/05 01:25:31;;;;;;;48.47;28.50;;;3.70;97.90;;;;;;4996421;28;20213;-77
2020/12/05 01:27:57;;;;;;;48.72;26.55;;;3.70;98.00;;;;;;4997745;28;20213;-78
2020/12/05 01:30:24;;;;;;;41.97;26.67;;;3.70;98.10;;;;;;4987318;28;20229;-78
2020/12/05 01:32:50;;;;;;;40.35;26.65;;;3.70;98.40;;;;;;5001525;28;20202;-77
2020/12/05 01:35:17;;;;;;;40.72;25.10;;;3.80;98.80;;;;;;5018945;28;20192;-78
2020/12/05 01:37:43;;;;;;;44.53;26.88;;;3.80;99.00;;;;;;5004401;28;20256;-78
2020/12/05 01:40:10;;;;;;;43.80;27.52;;;3.80;99.30;;;;;;4999373;28;20253;-78
2020/12/05 01:42:37;;;;;;;47.13;25.73;;;3.90;99.50;;;;;;5011751;28;20231;-78
2020/12/05 01:45:03;;;;;;;48.10;28.38;;;3.80;99.90;;;;;;5016290;28;20213;-80
2020/12/05 01:47:30;;;;;;;46.35;28.73;;;3.90;99.90;;;;;;5004008;28;20206;-79
2020/12/05 01:49:58;;;;;;;48.53;26.70;;;3.90;99.90;;;;;;5008174;28;20272;-80
2020/12/05 01:52:24;;;;;;;46.28;27.00;;;3.80;99.90;;;;;;4997058;28;20225;-78
2020/12/05 01:54:51;;;;;;;43.33;27.00;;;3.90;99.90;;;;;;4985821;28;20305;-79
2020/12/05 01:57:20;;;;;;;45.97;28.25;;;3.90;99.90;;;;;;5002284;28;20377;-78
2020/12/05 01:59:47;;;;;;;45.83;26.10;;;3.90;99.90;;;;;;5005655;28;20208;-79
2020/12/05 02:02:14;;;;;;;41.70;27.17;;;4.00;99.90;;;;;;5007784;28;20259;-79
2020/12/05 02:04:51;;;;;;;43.10;25.88;;;4.00;99.90;;;;;;5000009;28;20236;-79
2020/12/05 02:07:35;;;;;;;41.25;27.55;;;4.10;99.90;;;;;;4981291;28;20224;-79
2020/12/05 02:10:04;;;;;;;41.85;24.45;;;4.20;99.90;;;;;;4992388;28;20233;-79
2020/12/05 02:12:35;;;;;;;42.63;25.63;;;4.20;99.90;;;;;;5010705;28;20626;-77
2020/12/05 02:15:06;;;;;;;38.60;21.90;;;4.20;99.90;;;;;;5009604;28;20244;-78
2020/12/05 02:17:37;;;;;;;39.97;24.35;;;4.30;99.90;;;;;;5012887;28;20273;-78
2020/12/05 02:20:07;;;;;;;41.13;23.95;;;4.30;99.90;;;;;;5015234;28;20191;-77
2020/12/05 02:22:39;;;;;;;38.47;24.00;;;4.30;99.90;;;;;;5018269;28;20228;-78
2020/12/05 02:25:07;;;;;;;37.33;24.27;;;4.30;99.90;;;;;;5006230;28;20201;-77
2020/12/05 02:27:34;;;;;;;38.30;24.35;;;4.40;99.90;;;;;;4981797;28;20205;-79
2020/12/05 02:30:01;;;;;;;35.72;22.80;;;4.50;99.90;;;;;;4983216;28;20209;-79
2020/12/05 02:32:27;;;;;;;34.88;22.70;;;4.50;99.90;;;;;;4982817;28;20229;-79
2020/12/05 02:34:54;;;;;;;35.60;22.73;;;4.50;99.90;;;;;;5002278;28;20274;-79
2020/12/05 02:37:25;;;;;;;33.88;23.30;;;4.50;99.90;;;;;;5007224;28;20242;-79
2020/12/05 02:39:51;;;;;;;33.10;20.73;;;4.60;99.90;;;;;;5004932;28;20213;-78
2020/12/05 02:42:19;;;;;;;34.15;22.25;;;4.60;99.90;;;;;;5012673;28;20242;-78
2020/12/05 02:44:48;;;;;;;31.23;21.33;;;4.60;99.90;;;;;;5008576;28;20298;-78
2020/12/05 02:47:15;;;;;;;33.45;21.30;;;4.60;99.90;;;;;;4997647;28;20293;-80
2020/12/05 02:49:41;;;;;;;31.80;21.40;;;4.50;99.90;;;;;;4991038;28;20245;-79
2020/12/05 02:52:08;;;;;;;34.30;22.20;;;4.50;99.90;;;;;;4989515;28;20273;-80
2020/12/05 02:54:34;;;;;;;33.45;20.38;;;4.50;99.90;;;;;;4992208;28;20241;-78
2020/12/05 02:57:01;;;;;;;31.30;21.63;;;4.50;99.90;;;;;;5004399;28;20232;-78
2020/12/05 02:59:29;;;;;;;29.90;20.30;;;4.60;99.90;;;;;;5017021;28;20269;-78
2020/12/05 03:01:55;;;;;;;29.48;19.80;;;4.60;99.90;;;;;;5016023;28;20228;-78
2020/12/05 03:04:22;;;;;;;27.48;17.52;;;4.60;99.90;;;;;;5014372;28;20205;-77
2020/12/05 03:06:49;;;;;;;30.08;18.40;;;4.60;99.90;;;;;;5017703;28;20197;-78
2020/12/05 03:09:16;;;;;;;24.85;16.17;;;4.60;99.90;;;;;;5017432;28;20220;-78
2020/12/05 03:11:42;;;;;;;22.40;14.65;;;4.70;99.90;;;;;;5005568;28;20255;-77
2020/12/05 03:14:09;;;;;;;17.30;11.43;;;4.60;99.90;;;;;;5004313;28;20268;-79
2020/12/05 03:16:36;;;;;;;14.32;9.90;;;4.60;99.90;;;;;;5001862;28;20216;-78
2020/12/05 03:19:03;;;;;;;11.25;8.25;;;4.60;99.90;;;;;;5004445;28;20221;-79
2020/12/05 03:21:29;;;;;;;9.45;7.70;;;4.60;99.90;;;;;;5014304;28;20240;-78
2020/12/05 03:23:55;;;;;;;7.88;6.28;;;4.60;99.90;;;;;;5013676;28;20207;-78
2020/12/05 03:26:22;;;;;;;8.07;5.22;;;4.50;99.90;;;;;;5014222;28;20209;-78
2020/12/05 03:28:48;;;;;;;7.93;5.70;;;4.40;99.90;;;;;;5013412;28;20215;-78
2020/12/05 03:31:26;;;;;;;6.65;5.45;;;4.40;99.90;;;;;;5012799;28;20236;-78
2020/12/05 03:33:54;;;;;;;4.85;3.83;;;4.40;99.90;;;;;;5014012;28;20255;-78
2020/12/05 03:36:20;;;;;;;6.03;3.65;;;4.40;99.90;;;;;;5004864;28;20209;-79
2020/12/05 03:38:46;;;;;;;4.55;3.75;;;4.40;99.90;;;;;;5008632;28;20208;-78
2020/12/05 03:41:14;;;;;;;4.40;3.10;;;4.40;99.90;;;;;;5012484;28;20259;-77
2020/12/05 03:43:41;;;;;;;3.30;3.00;;;4.30;99.90;;;;;;5010790;28;20201;-78
2020/12/05 03:46:07;;;;;;;3.25;2.67;;;4.30;99.90;;;;;;5013441;28;20283;-78
2020/12/05 03:48:34;;;;;;;4.35;3.20;;;4.30;99.90;;;;;;4992778;28;20219;-79
2020/12/05 03:51:01;;;;;;;3.15;2.85;;;4.30;99.90;;;;;;4997108;28;20219;-79
2020/12/05 03:53:27;;;;;;;3.08;2.40;;;4.30;99.90;;;;;;5012865;28;20238;-78
2020/12/05 03:55:54;;;;;;;2.58;2.17;;;4.30;99.90;;;;;;5011818;28;20243;-78
2020/12/05 03:58:21;;;;;;;2.70;2.50;;;4.30;99.90;;;;;;5003636;28;20213;-79
2020/12/05 04:00:47;;;;;;;2.42;2.22;;;4.40;99.70;;;;;;5003975;28;20230;-79
2020/12/05 04:03:14;;;;;;;3.10;2.70;;;4.30;99.40;;;;;;5009306;28;20219;-78
2020/12/05 04:05:40;;;;;;;2.60;2.40;;;4.40;99.40;;;;;;5007751;28;20630;-79
2020/12/05 04:08:08;;;;;;;2.35;2.15;;;4.40;99.20;;;;;;5009673;28;20205;-79
2020/12/05 04:10:34;;;;;;;2.58;2.38;;;4.30;98.90;;;;;;5000156;28;20608;-79
2020/12/05 04:13:01;;;;;;;2.10;2.00;;;4.40;98.90;;;;;;4986063;28;20238;-79
2020/12/05 04:15:27;;;;;;;2.15;1.95;;;4.40;98.80;;;;;;4986929;28;20229;-78
2020/12/05 04:17:53;;;;;;;1.70;1.60;;;4.30;98.40;;;;;;4983764;28;20229;-79
2020/12/05 04:20:20;;;;;;;2.40;2.20;;;4.30;98.40;;;;;;4984447;28;20205;-78
2020/12/05 04:22:46;;;;;;;2.38;2.17;;;4.30;98.60;;;;;;4984510;28;20209;-78
2020/12/05 04:25:14;;;;;;;1.90;1.80;;;4.20;98.40;;;;;;4980918;28;20610;-79
2020/12/05 04:27:40;;;;;;;1.80;1.65;;;4.30;98.50;;;;;;4984444;28;20380;-79
2020/12/05 04:30:06;;;;;;;2.20;2.00;;;4.30;98.60;;;;;;4987938;28;20209;-78
2020/12/05 04:32:33;;;;;;;1.98;1.73;;;4.40;98.40;;;;;;4999090;28;20232;-78
2020/12/05 04:34:59;;;;;;;3.33;2.10;;;4.30;98.40;;;;;;4999694;28;20227;-79
2020/12/05 04:37:26;;;;;;;1.70;1.60;;;4.30;98.10;;;;;;4997795;28;20233;-79
2020/12/05 04:39:52;;;;;;;1.88;1.60;;;4.20;97.90;;;;;;4990740;28;20288;-79
2020/12/05 04:42:20;;;;;;;1.80;1.70;;;4.20;97.90;;;;;;4977615;28;20324;-78
2020/12/05 04:44:47;;;;;;;2.08;1.88;;;4.20;98.10;;;;;;4989550;28;20240;-78
2020/12/05 04:47:15;;;;;;;1.40;1.30;;;4.10;98.00;;;;;;5009581;28;20208;-78
2020/12/05 04:49:43;;;;;;;1.05;1.00;;;4.10;97.90;;;;;;5009491;28;20228;-78
2020/12/05 04:52:22;;;;;;;1.75;1.58;;;4.10;98.00;;;;;;5009962;28;20263;-78
2020/12/05 04:54:52;;;;;;;1.65;1.50;;;4.20;98.30;;;;;;5013549;28;20215;-78
2020/12/05 04:57:22;;;;;;;1.45;1.35;;;4.10;98.20;;;;;;5005031;28;20212;-77
2020/12/05 04:59:50;;;;;;;1.40;1.30;;;4.10;98.20;;;;;;4977682;28;20295;-78
2020/12/05 05:02:19;;;;;;;1.65;1.55;;;4.10;98.30;;;;;;4977773;28;20240;-78
2020/12/05 05:04:47;;;;;;;1.67;1.55;;;4.10;98.30;;;;;;4977667;28;20210;-78
2020/12/05 05:07:16;;;;;;;1.33;1.23;;;4.10;98.30;;;;;;4987886;28;20232;-79
2020/12/05 05:09:46;;;;;;;1.40;1.30;;;4.10;98.30;;;;;;4997484;28;20202;-78
2020/12/05 05:12:26;;;;;;;1.67;1.58;;;4.10;98.30;;;;;;4996989;28;20217;-78
2020/12/05 05:14:52;;;;;;;1.42;1.20;;;4.10;98.30;;;;;;4977380;28;20265;-78
2020/12/05 05:17:19;;;;;;;7.95;1.20;;;4.20;98.30;;;;;;4969089;28;20198;-78
2020/12/05 05:19:45;;;;;;;1.50;1.40;;;4.20;98.10;;;;;;4963602;28;20574;-77
2020/12/05 05:22:12;;;;;;;2.80;2.25;;;4.20;97.90;;;;;;4977107;28;20227;-77
2020/12/05 05:24:38;;;;;;;1.30;1.20;;;4.10;97.80;;;;;;4994934;28;20195;-78
2020/12/05 05:27:07;;;;;;;2.17;1.98;;;4.10;97.80;;;;;;4997011;28;20194;-78
2020/12/05 05:29:36;;;;;;;1.60;1.50;;;4.00;97.90;;;;;;4998654;28;20183;-78
2020/12/05 05:32:07;;;;;;;0.98;0.90;;;4.10;98.30;;;;;;5001352;28;20222;-78
2020/12/05 05:34:34;;;;;;;1.02;0.93;;;4.10;98.30;;;;;;5000771;28;20237;-77
2020/12/05 05:37:01;;;;;;;1.63;1.20;;;4.10;98.30;;;;;;4984040;28;20296;-78
2020/12/05 05:39:28;;;;;;;0.88;0.88;;;4.10;98.30;;;;;;4980172;28;20212;-79
2020/12/05 05:41:56;;;;;;;0.80;0.80;;;4.10;98.20;;;;;;4991827;28;20653;-78
2020/12/05 05:44:27;;;;;;;1.10;1.00;;;4.10;98.10;;;;;;4998302;28;20752;-78
2020/12/05 05:46:54;;;;;;;1.60;1.50;;;4.10;98.00;;;;;;4987072;28;20205;-80
2020/12/05 05:49:32;;;;;;;1.23;1.13;;;4.10;98.10;;;;;;4980036;28;20240;-78
2020/12/05 05:51:59;;;;;;;1.13;1.02;;;4.10;98.20;;;;;;4993572;28;20225;-79
2020/12/05 05:54:27;;;;;;;1.40;1.27;;;4.00;98.20;;;;;;5003546;28;20251;-78
2020/12/05 05:56:59;;;;;;;0.90;0.90;;;4.10;98.40;;;;;;4997684;28;20209;-78
2020/12/05 05:59:27;;;;;;;2.10;1.02;;;4.10;98.30;;;;;;5002267;28;20299;-79
2020/12/05 06:01:55;;;;;;;1.05;1.05;;;4.10;98.40;;;;;;5004511;28;20236;-79
2020/12/05 06:04:30;;;;;;;0.60;0.60;;;4.20;98.30;;;;;;5010697;28;20196;-78
2020/12/05 06:06:58;;;;;;;1.00;0.90;;;4.20;98.00;;;;;;5009856;28;20193;-79
2020/12/05 06:09:34;;;;;;;3.13;1.33;;;4.20;97.60;;;;;;4999521;28;20228;-78
2020/12/05 06:12:03;;;;;;;1.25;0.85;;;4.20;97.70;;;;;;4999589;28;20213;-77
2020/12/05 06:14:30;;;;;;;0.98;0.95;;;4.20;97.70;;;;;;5000173;28;20210;-78
2020/12/05 06:16:59;;;;;;;1.27;1.17;;;4.30;97.70;;;;;;5004446;28;20209;-78
2020/12/05 06:19:27;;;;;;;1.00;1.00;;;4.30;97.40;;;;;;5001110;28;20205;-80
2020/12/05 06:21:56;;;;;;;0.90;0.90;;;4.30;97.40;;;;;;4992011;28;20905;-78
2020/12/05 06:24:47;;;;;;;1.10;1.00;;;4.20;97.40;;;;;;4977092;28;20726;-78
2020/12/05 06:27:16;;;;;;;1.35;1.25;;;4.20;97.50;;;;;;4988721;28;20213;-78
2020/12/05 06:29:43;;;;;;;0.90;0.90;;;4.20;97.50;;;;;;5001182;28;20253;-77
2020/12/05 06:32:10;;;;;;;1.60;1.50;;;4.20;97.50;;;;;;4996701;28;20274;-78
2020/12/05 06:34:41;;;;;;;3.85;1.10;;;4.10;97.50;;;;;;4995577;28;20312;-78
2020/12/05 06:37:10;;;;;;;1.40;1.30;;;4.20;97.70;;;;;;4996071;28;20285;-78
2020/12/05 06:39:37;;;;;;;1.60;1.17;;;4.20;97.70;;;;;;4996137;28;20217;-78
2020/12/05 06:42:04;;;;;;;1.10;1.00;;;4.10;97.60;;;;;;5014456;23;20230;-79
2020/12/05 06:44:38;;;;;;;1.10;1.10;;;4.10;97.70;;;;;;4990359;28;20205;-78
2020/12/05 06:47:06;;;;;;;1.60;1.50;;;4.10;97.70;;;;;;4979771;28;20780;-79
2020/12/05 06:49:51;;;;;;;1.60;1.50;;;4.00;97.70;;;;;;4982553;28;20218;-78
2020/12/05 06:52:41;;;;;;;1.85;1.60;;;4.00;97.80;;;;;;4991854;28;20254;-78
2020/12/05 06:55:30;;;;;;;1.40;1.30;;;3.90;97.90;;;;;;4972158;28;20244;-81
2020/12/05 06:58:06;;;;;;;2.13;1.80;;;3.80;97.90;;;;;;4980178;28;20206;-80
2020/12/05 07:00:37;;;;;;;2.40;2.20;;;3.70;98.00;;;;;;4983185;28;20280;-78
2020/12/05 07:03:05;;;;;;;2.50;2.30;;;3.60;98.10;;;;;;4981120;28;20225;-79
2020/12/05 07:05:42;;;;;;;3.05;2.80;;;3.60;98.40;;;;;;4983956;28;20197;-80
2020/12/05 07:08:27;;;;;;;3.65;3.35;;;3.60;98.80;;;;;;4983475;28;20628;-80
2020/12/05 07:10:59;;;;;;;5.15;2.80;;;3.50;98.90;;;;;;4985006;28;20205;-80
2020/12/05 07:13:28;;;;;;;3.00;2.33;;;3.50;99.10;;;;;;4982487;28;20198;-78
2020/12/05 07:16:16;;;;;;;2.72;2.53;;;3.40;99.20;;;;;;4983056;28;20284;-82
2020/12/05 07:18:43;;;;;;;2.20;2.00;;;3.40;99.60;;;;;;4981698;28;20667;-81
2020/12/05 07:21:11;;;;;;;3.95;2.90;;;3.40;99.40;;;;;;4984729;28;20248;-82
2020/12/05 07:23:38;;;;;;;2.58;2.38;;;3.30;99.80;;;;;;4995082;28;20293;-81
2020/12/05 07:26:05;;;;;;;2.45;2.25;;;3.30;99.60;;;;;;4997103;28;20250;-81
2020/12/05 07:28:33;;;;;;;2.85;2.63;;;3.10;99.50;;;;;;4997619;28;20319;-80
2020/12/05 07:30:59;;;;;;;3.15;2.85;;;3.30;99.90;;;;;;4997505;28;20205;-81
2020/12/05 07:33:27;;;;;;;5.63;2.85;;;3.20;99.70;;;;;;4998208;28;20194;-79
2020/12/05 07:36:03;;;;;;;3.40;3.05;;;3.10;99.90;;;;;;4998487;28;20236;-80
2020/12/05 07:38:33;;;;;;;3.13;2.83;;;3.20;99.90;;;;;;4998764;28;20221;-80
2020/12/05 07:41:27;;;;;;;2.33;2.13;;;3.20;99.90;;;;;;5103347;23;20241;-79
2020/12/05 07:54:19;;;;;;;2.72;2.50;;;3.60;99.90;;;;;;5036242;28;20289;-79
2020/12/05 07:56:46;;;;;;;3.08;2.88;;;3.80;99.90;;;;;;5038010;28;20172;-81
2020/12/05 07:59:21;;;;;;;4.70;2.55;;;3.90;99.90;;;;;;5038019;28;20211;-79
2020/12/05 08:02:04;;;;;;;2.95;2.55;;;4.00;99.90;;;;;;5038372;28;20288;-79
2020/12/05 08:04:46;;;;;;;4.20;3.40;;;4.00;99.90;;;;;;5038208;28;20211;-78
2020/12/05 08:09:44;;;;;;;4.28;3.80;;;4.10;99.90;;;;;;5062129;23;20228;-79
2020/12/05 08:12:19;;;;;;;3.33;3.00;;;4.10;99.90;;;;;;5037623;28;20220;-78
2020/12/05 08:15:03;;;;;;;3.20;2.92;;;4.20;99.90;;;;;;5037372;28;20446;-79
2020/12/05 08:17:36;;;;;;;3.28;2.97;;;4.30;99.90;;;;;;5131874;23;20229;-78
2020/12/05 08:20:04;;;;;;;4.47;3.63;;;4.40;99.90;;;;;;5036996;28;20249;-78
2020/12/05 08:22:31;;;;;;;4.30;3.90;;;4.40;99.90;;;;;;5037265;28;20232;-79
2020/12/05 08:24:59;;;;;;;4.40;4.00;;;4.40;99.90;;;;;;5037255;28;20212;-78
2020/12/05 08:27:26;;;;;;;5.05;4.55;;;4.50;99.90;;;;;;5036894;28;20203;-79
2020/12/05 08:29:53;;;;;;;6.72;4.85;;;4.50;99.90;;;;;;5037295;28;20244;-77
2020/12/05 08:32:20;;;;;;;5.50;4.28;;;4.50;99.50;;;;;;5034545;28;20291;-77
2020/12/05 08:34:47;;;;;;;6.72;4.15;;;4.40;99.20;;;;;;5037082;28;20268;-77
2020/12/05 08:37:18;;;;;;;5.63;3.90;;;4.30;98.50;;;;;;5036381;28;20187;-79
2020/12/05 08:39:47;;;;;;;5.28;4.10;;;4.30;98.40;;;;;;5023085;28;20195;-77
2020/12/05 08:42:15;;;;;;;4.22;3.70;;;4.30;98.30;;;;;;5017835;28;20225;-77
2020/12/05 08:44:41;;;;;;;5.85;3.60;;;4.40;98.10;;;;;;5012414;28;20205;-78
2020/12/05 08:47:07;;;;;;;4.53;3.88;;;4.30;97.60;;;;;;5017016;28;20307;-78
2020/12/05 08:49:39;;;;;;;5.20;4.15;;;4.20;97.50;;;;;;5015203;28;20214;-78
2020/12/05 08:52:06;;;;;;;4.25;3.85;;;4.30;97.60;;;;;;4995804;28;20229;-78
2020/12/05 08:54:42;;;;;;;4.78;4.00;;;4.30;97.10;;;;;;4996816;28;20224;-78
2020/12/05 08:57:12;;;;;;;6.63;4.85;;;4.20;97.30;;;;;;4995767;28;20223;-79
2020/12/05 08:59:40;;;;;;;5.20;4.45;;;4.40;97.70;;;;;;5014836;28;20312;-78
2020/12/05 09:02:07;;;;;;;6.13;5.45;;;4.40;97.60;;;;;;5015931;28;20240;-78
2020/12/05 09:04:35;;;;;;;5.82;5.22;;;4.30;96.70;;;;;;5020841;28;20258;-77
2020/12/05 09:07:12;;;;;;;5.05;4.65;;;4.30;97.10;;;;;;5020592;28;20209;-78
2020/12/05 09:09:39;;;;;;;4.80;4.35;;;4.30;97.00;;;;;;5025712;28;20250;-78
2020/12/05 09:12:08;;;;;;;7.10;5.45;;;4.20;97.30;;;;;;5032790;28;20255;-77
2020/12/05 09:14:35;;;;;;;6.22;4.97;;;4.30;97.70;;;;;;5031246;28;20762;-80
2020/12/05 09:17:04;;;;;;;8.07;5.03;;;4.40;98.10;;;;;;5026206;28;20247;-77
2020/12/05 09:19:32;;;;;;;5.05;3.80;;;4.70;98.30;;;;;;5021106;28;20268;-80
2020/12/05 09:21:59;;;;;;;5.95;4.60;;;4.80;98.00;;;;;;5021047;28;20699;-78
2020/12/05 09:24:25;;;;;;;4.70;4.05;;;4.80;97.30;;;;;;5023315;28;20199;-77
2020/12/05 09:26:58;;;;;;;4.10;3.70;;;5.00;96.90;;;;;;5037594;28;20276;-78
2020/12/05 09:29:25;;;;;;;4.18;3.78;;;5.00;95.60;;;;;;5036199;28;20222;-77
2020/12/05 09:31:52;;;;;;;4.65;4.03;;;5.00;94.70;;;;;;5023606;28;20224;-76
2020/12/05 09:34:38;;;;;;;5.22;4.20;;;5.20;94.40;;;;;;5015894;28;20256;-78
2020/12/05 09:37:10;;;;;;;7.75;3.95;;;5.40;93.50;;;;;;5006228;28;20440;-78
2020/12/05 09:39:36;;;;;;;4.05;3.65;;;5.40;93.00;;;;;;5020216;28;20216;-78
2020/12/05 09:42:03;;;;;;;4.72;3.92;;;5.50;92.50;;;;;;5027985;28;20228;-78
2020/12/05 09:44:29;;;;;;;3.83;3.53;;;5.60;91.80;;;;;;5022128;28;20210;-78
2020/12/05 09:46:56;;;;;;;3.13;2.80;;;5.70;91.70;;;;;;5020666;28;20263;-79
2020/12/05 09:49:22;;;;;;;3.00;2.78;;;5.80;90.60;;;;;;5022696;28;20239;-80
2020/12/05 09:51:52;;;;;;;3.53;2.92;;;5.70;88.80;;;;;;5024462;28;20398;-79
2020/12/05 09:54:18;;;;;;;3.90;2.92;;;5.60;87.20;;;;;;5023208;28;20660;-78
2020/12/05 09:56:44;;;;;;;3.22;2.67;;;5.70;87.60;;;;;;5018569;28;20256;-78
2020/12/05 09:59:11;;;;;;;2.75;2.55;;;5.80;86.00;;;;;;5019524;28;20248;-79
2020/12/05 10:01:37;;;;;;;3.00;2.15;;;5.70;83.90;;;;;;5018623;28;20234;-79
2020/12/05 10:04:04;;;;;;;3.85;3.30;;;5.70;82.40;;;;;;5020758;28;20230;-79
2020/12/05 10:06:30;;;;;;;5.60;4.25;;;5.50;85.10;;;;;;5019452;28;20208;-78
2020/12/05 10:08:58;;;;;;;8.20;4.82;;;5.40;87.00;;;;;;5019661;28;20678;-79
2020/12/05 10:11:24;;;;;;;6.90;4.70;;;5.20;89.90;;;;;;5019855;28;20231;-79
2020/12/05 10:13:50;;;;;;;8.60;6.15;;;5.10;91.10;;;;;;5021331;28;20211;-79
2020/12/05 10:16:17;;;;;;;7.18;6.47;;;5.20;92.00;;;;;;5021366;28;20252;-80
2020/12/05 10:18:43;;;;;;;5.65;5.00;;;5.10;92.50;;;;;;5031984;28;20216;-79
2020/12/05 10:21:11;;;;;;;6.07;5.47;;;5.30;92.80;;;;;;5031491;28;20267;-78
2020/12/05 10:23:37;;;;;;;8.65;7.05;;;5.40;92.30;;;;;;5090530;23;20228;-78
2020/12/05 10:26:07;;;;;;;8.93;6.50;;;5.20;92.00;;;;;;5031644;28;20231;-79
2020/12/05 10:28:33;;;;;;;8.45;6.95;;;5.10;92.80;;;;;;5040974;28;20668;-79
2020/12/05 10:31:00;;;;;;;5.90;5.40;;;5.30;93.10;;;;;;5040824;28;20216;-80
2020/12/05 10:33:27;;;;;;;6.95;6.25;;;5.40;92.60;;;;;;5040287;28;20263;-79
2020/12/05 10:35:53;;;;;;;6.22;5.60;;;5.60;92.20;;;;;;5046163;28;20238;-77
2020/12/05 10:38:28;;;;;;;6.60;5.80;;;5.40;91.20;;;;;;5049315;28;20203;-82
2020/12/05 10:40:55;;;;;;;5.82;5.22;;;5.20;91.70;;;;;;5040173;28;20286;-78
2020/12/05 10:43:22;;;;;;;5.32;4.82;;;5.30;92.50;;;;;;5043018;28;20234;-80
2020/12/05 10:45:49;;;;;;;8.15;4.93;;;5.40;91.80;;;;;;5038889;28;20591;-78
2020/12/05 10:48:15;;;;;;;6.43;4.97;;;5.50;91.40;;;;;;5025383;28;20212;-78
2020/12/05 10:50:42;;;;;;;4.90;4.35;;;5.50;90.40;;;;;;5027446;28;20618;-80
2020/12/05 10:53:08;;;;;;;7.38;5.30;;;5.20;90.10;;;;;;5028638;28;20267;-77
2020/12/05 10:55:35;;;;;;;5.82;5.22;;;5.30;91.70;;;;;;5037257;28;20231;-78
2020/12/05 10:58:01;;;;;;;5.72;4.60;;;5.20;91.60;;;;;;5053557;28;20226;-80
2020/12/05 11:00:29;;;;;;;8.10;4.78;;;5.60;91.70;;;;;;5053709;28;20192;-79
2020/12/05 11:02:55;;;;;;;6.13;4.72;;;5.70;90.10;;;;;;5055159;28;20228;-77
2020/12/05 11:05:21;;;;;;;5.93;4.32;;;5.80;89.10;;;;;;5054456;28;20266;-77
2020/12/05 11:07:48;;;;;;;4.43;4.03;;;5.70;88.80;;;;;;5052467;28;20243;-79
2020/12/05 11:10:15;;;;;;;5.57;4.30;;;5.90;86.90;;;;;;5049629;28;20229;-79
2020/12/05 11:12:42;;;;;;;7.55;4.55;;;5.70;86.00;;;;;;5051393;28;20240;-79
2020/12/05 11:15:09;;;;;;;5.85;5.28;;;5.60;88.60;;;;;;5028139;28;20285;-80
2020/12/05 11:17:42;;;;;;;5.00;4.57;;;5.60;86.90;;;;;;5031852;28;20197;-79
2020/12/05 11:20:34;;;;;;;5.47;4.93;;;5.20;90.10;;;;;;5033542;28;20219;-78
2020/12/05 11:23:05;;;;;;;6.10;5.57;;;5.40;91.10;;;;;;5033939;28;20256;-79
2020/12/05 11:25:32;;;;;;;5.40;4.88;;;5.70;91.20;;;;;;5031681;28;20213;-78
2020/12/05 11:28:03;;;;;;;5.03;4.50;;;5.90;90.10;;;;;;5032500;28;20224;-79
2020/12/05 11:30:30;;;;;;;5.70;5.00;;;5.60;87.60;;;;;;5034474;28;20277;-78
2020/12/05 11:32:58;;;;;;;6.32;5.10;;;5.80;88.10;;;;;;5022184;28;20226;-79
2020/12/05 11:35:24;;;;;;;5.40;4.78;;;6.00;86.90;;;;;;5006496;28;20221;-79
2020/12/05 11:37:51;;;;;;;6.07;5.47;;;6.00;85.00;;;;;;5004065;28;20237;-79
2020/12/05 11:40:17;;;;;;;9.68;5.63;;;6.00;83.40;;;;;;5017660;28;20293;-79
2020/12/05 11:42:44;;;;;;;6.10;5.50;;;6.00;83.30;;;;;;5014939;28;20292;-80
2020/12/05 11:45:28;;;;;;;5.68;4.65;;;5.80;85.50;;;;;;5015024;28;20216;-80
2020/12/05 11:48:07;;;;;;;6.72;4.97;;;5.80;87.40;;;;;;5016864;28;20208;-79
2020/12/05 11:50:34;;;;;;;6.22;5.63;;;5.90;87.60;;;;;;5015120;28;20217;-79
2020/12/05 11:53:00;;;;;;;4.13;3.72;;;5.90;86.80;;;;;;4996899;28;20233;-79
2020/12/05 11:55:27;;;;;;;5.22;4.70;;;5.90;87.70;;;;;;4997376;28;20245;-78
2020/12/05 11:57:53;;;;;;;5.40;4.90;;;5.60;89.50;;;;;;4998037;28;20213;-80
2020/12/05 12:03:08;;;;;;;5.30;4.65;;;5.50;91.30;;;;;;5005574;28;20292;-79
2020/12/05 12:05:34;;;;;;;5.38;4.90;;;5.60;91.60;;;;;;4997095;28;20206;-79
2020/12/05 12:08:00;;;;;;;6.22;4.60;;;5.70;91.20;;;;;;4995462;28;20210;-79
2020/12/05 12:10:28;;;;;;;6.75;5.53;;;5.70;90.10;;;;;;5002608;28;20289;-78
2020/12/05 12:12:54;;;;;;;5.88;5.13;;;5.40;90.90;;;;;;4995877;28;20240;-79
2020/12/05 12:15:28;;;;;;;6.60;5.93;;;5.30;91.60;;;;;;5010119;28;20237;-79
2020/12/05 12:26:43;;;;;;;8.68;6.40;;;5.20;92.60;;;;;;6032602;23;20189;-80
2020/12/05 12:29:10;;;;;;;7.38;6.20;;;5.10;92.00;;;;;;5030302;28;20228;-79
2020/12/05 12:31:36;;;;;;;7.78;6.70;;;5.20;92.10;;;;;;5023988;28;20220;-79
2020/12/05 12:34:03;;;;;;;12.23;7.90;;;5.20;92.00;;;;;;5031206;28;20265;-81
2020/12/05 12:36:29;;;;;;;7.78;6.78;;;5.10;92.40;;;;;;5033120;28;20228;-79
2020/12/05 12:38:56;;;;;;;10.60;8.32;;;5.20;92.50;;;;;;5030165;28;20208;-80
2020/12/05 12:41:22;;;;;;;10.35;7.63;;;5.10;91.80;;;;;;5026703;28;20304;-80
2020/12/05 12:43:51;;;;;;;10.52;9.02;;;5.10;92.20;;;;;;5026147;28;20196;-80
2020/12/05 12:46:20;;;;;;;13.25;8.05;;;5.00;92.30;;;;;;5028476;28;20208;-81
2020/12/05 12:48:47;;;;;;;10.75;9.27;;;4.90;93.40;;;;;;5033646;28;20209;-80
2020/12/05 12:51:21;;;;;;;11.00;9.23;;;5.00;93.40;;;;;;5036825;28;20219;-79
2020/12/05 12:53:50;;;;;;;11.35;9.93;;;4.90;93.40;;;;;;5036916;28;20208;-81
2020/12/05 12:56:19;;;;;;;11.60;9.48;;;5.10;93.40;;;;;;5037316;28;20224;-81
2020/12/05 12:59:18;;;;;;;11.50;9.23;;;5.10;93.40;;;;;;5029893;28;20217;-81
2020/12/05 13:01:45;;;;;;;10.93;8.75;;;5.20;93.20;;;;;;5021851;28;20236;-80
2020/12/05 13:04:11;;;;;;;10.93;8.57;;;5.20;92.90;;;;;;5024351;28;20259;-81
2020/12/05 13:06:38;;;;;;;11.88;9.38;;;5.40;92.40;;;;;;5023456;28;20204;-80
2020/12/05 13:09:05;;;;;;;10.77;8.88;;;5.30;92.20;;;;;;5032823;28;20273;-80
2020/12/05 13:19:48;;;;;;;12.13;9.38;;;5.30;91.20;;;;;;5567233;23;20503;-80
2020/12/05 13:22:26;;;;;;;9.43;8.45;;;5.30;91.10;;;;;;5012275;28;20226;-80
2020/12/05 13:39:04;;;;;;;8.40;7.60;;;5.30;89.90;;;;;;5369077;23;20261;-81
2020/12/05 13:41:38;;;;;;;9.52;7.82;;;5.30;89.90;;;;;;5072246;28;20294;-80
2020/12/05 13:47:10;;;;;;;9.23;7.97;;;5.20;87.20;;;;;;5065640;28;20200;-79
2020/12/05 13:49:36;;;;;;;9.45;7.95;;;5.30;88.50;;;;;;5056599;28;20273;-77